Time;durP1;ratioP1;P1;durP2;ratioP2;P2;SDS_P1;SDS_P2;PMS_P1;PMS_P2;Temp;Humidity;BMP_temperature;BMP_pressure;BME280_temperature;BME280_humidity;BME280_pressure;Samples;Min_cycle;Max_cycle;Signal;HPM_P1;HPM_P2
2023/09/26 00:02:04;;;;;;;0.47;0.40;;;;;;;21.40;42.94;101669.88;4971550;28;20393;-84
2023/09/26 00:04:30;;;;;;;0.30;0.30;;;;;;;21.33;42.92;101669.91;4971370;28;21306;-81
2023/09/26 00:06:59;;;;;;;0.38;0.35;;;;;;;21.30;43.05;101675.78;4987905;28;20987;-82
2023/09/26 00:09:27;;;;;;;1.40;0.83;;;;;;;21.35;43.10;101677.81;4987006;28;20430;-83
2023/09/26 00:11:55;;;;;;;0.90;0.50;;;;;;;21.35;43.09;101683.19;4977165;28;20385;-82
2023/09/26 00:14:21;;;;;;;0.40;0.30;;;;;;;21.43;42.77;101674.00;4977403;28;20735;-82
2023/09/26 00:16:52;;;;;;;0.40;0.30;;;;;;;21.43;42.92;101679.41;4970949;28;20942;-82
2023/09/26 00:19:17;;;;;;;1.00;0.55;;;;;;;21.50;42.54;101677.50;4971148;28;20867;-82
2023/09/26 00:21:47;;;;;;;0.73;0.45;;;;;;;21.53;42.68;101675.19;4987007;28;21059;-82
2023/09/26 00:24:13;;;;;;;0.63;0.40;;;;;;;21.54;42.70;101678.75;4970795;28;20381;-82
2023/09/26 00:26:39;;;;;;;0.63;0.50;;;;;;;21.55;42.62;101675.84;4988626;28;20401;-81
2023/09/26 00:29:06;;;;;;;0.43;0.40;;;;;;;21.59;42.75;101684.31;5026433;28;20490;-82
2023/09/26 00:31:31;;;;;;;0.80;0.50;;;;;;;21.59;42.56;101678.91;5026039;28;20909;-82
2023/09/26 00:33:57;;;;;;;0.55;0.35;;;;;;;21.62;42.42;101677.63;5026860;28;20445;-80
2023/09/26 00:36:24;;;;;;;0.33;0.33;;;;;;;21.66;42.39;101681.53;5026968;28;20410;-80
2023/09/26 00:38:50;;;;;;;0.40;0.30;;;;;;;21.60;42.35;101685.94;5028734;28;20397;-79
2023/09/26 00:41:20;;;;;;;0.50;0.40;;;;;;;21.47;42.61;101670.69;5028105;28;20397;-81
2023/09/26 00:43:46;;;;;;;0.43;0.32;;;;;;;21.53;42.44;101679.78;5028470;28;20469;-78
2023/09/26 00:46:12;;;;;;;0.40;0.30;;;;;;;21.51;42.52;101679.19;5028618;28;20481;-80
2023/09/26 00:48:42;;;;;;;0.50;0.30;;;;;;;21.53;42.47;101674.38;5027631;28;20425;-77
2023/09/26 00:51:08;;;;;;;0.50;0.40;;;;;;;21.45;42.36;101664.69;5010543;28;20732;-79
2023/09/26 00:53:38;;;;;;;0.60;0.40;;;;;;;21.43;42.61;101674.84;5026785;28;20438;-80
2023/09/26 00:56:04;;;;;;;2.10;1.63;;;;;;;21.37;42.69;101670.31;5026591;28;20418;-79
2023/09/26 00:58:31;;;;;;;0.52;0.40;;;;;;;21.41;42.74;101676.09;5010238;28;20485;-80
2023/09/26 01:00:58;;;;;;;0.70;0.45;;;;;;;21.26;42.64;101668.31;5042246;28;20429;-79
2023/09/26 01:03:24;;;;;;;0.47;0.38;;;;;;;21.20;42.94;101670.84;5047750;28;20412;-79
2023/09/26 01:05:50;;;;;;;0.40;0.30;;;;;;;21.23;42.84;101664.22;5013010;28;20811;-80
2023/09/26 01:08:16;;;;;;;0.50;0.40;;;;;;;21.26;42.63;101673.72;5029145;28;20441;-80
2023/09/26 01:10:42;;;;;;;0.50;0.40;;;;;;;21.30;42.80;101674.94;5029450;28;20764;-78
2023/09/26 01:13:08;;;;;;;0.50;0.40;;;;;;;21.31;42.80;101665.81;5029740;28;20911;-79
2023/09/26 01:15:40;;;;;;;0.52;0.40;;;;;;;21.31;42.68;101666.63;5047212;28;20819;-79
2023/09/26 01:18:13;;;;;;;0.70;0.50;;;;;;;21.32;42.69;101675.53;5029012;28;20819;-81
2023/09/26 01:20:44;;;;;;;0.75;0.60;;;;;;;21.30;42.52;101675.78;5029323;28;20391;-83
2023/09/26 01:23:13;;;;;;;0.55;0.50;;;;;;;21.26;42.76;101674.53;5028080;28;20449;-82
2023/09/26 01:25:40;;;;;;;0.73;0.47;;;;;;;21.25;42.91;101674.75;5011452;28;20467;-80
2023/09/26 01:28:08;;;;;;;0.60;0.43;;;;;;;21.20;42.73;101673.53;5028952;28;20412;-81
2023/09/26 01:30:38;;;;;;;0.38;0.30;;;;;;;21.24;42.66;101682.03;5027700;28;20395;-81
2023/09/26 01:33:08;;;;;;;0.70;0.50;;;;;;;21.19;42.80;101676.44;5033569;28;20396;-81
2023/09/26 01:35:51;;;;;;;0.40;0.30;;;;;;;21.13;43.11;101669.25;5049337;28;20484;-82
2023/09/26 01:38:19;;;;;;;0.55;0.55;;;;;;;21.11;43.11;101674.03;5033209;28;20467;-82
2023/09/26 01:40:45;;;;;;;0.30;0.30;;;;;;;20.94;43.57;101676.38;5051793;28;20894;-82
2023/09/26 01:43:11;;;;;;;0.40;0.40;;;;;;;20.83;44.01;101677.06;5033461;28;20422;-82
2023/09/26 01:45:37;;;;;;;0.38;0.30;;;;;;;20.79;44.23;101682.06;5033185;28;20415;-82
2023/09/26 01:48:05;;;;;;;0.40;0.30;;;;;;;20.74;44.25;101685.41;5051219;28;20794;-82
2023/09/26 01:50:31;;;;;;;0.45;0.45;;;;;;;20.72;44.23;101679.38;5041956;28;20384;-86
2023/09/26 01:52:57;;;;;;;0.32;0.30;;;;;;;20.62;44.29;101674.47;5050355;28;20783;-82
2023/09/26 01:55:23;;;;;;;0.50;0.40;;;;;;;20.62;44.30;101676.34;5032819;28;20899;-81
2023/09/26 01:57:49;;;;;;;0.50;0.40;;;;;;;20.70;44.06;101683.34;5050747;28;20387;-82
2023/09/26 02:00:19;;;;;;;0.80;0.70;;;;;;;20.75;43.98;101678.16;5032678;28;20491;-82
2023/09/26 02:02:47;;;;;;;0.50;0.50;;;;;;;20.80;43.77;101683.72;5033423;28;20464;-82
2023/09/26 02:05:17;;;;;;;0.50;0.50;;;;;;;20.79;43.75;101684.75;5033166;28;20408;-82
2023/09/26 02:07:45;;;;;;;0.30;0.30;;;;;;;20.76;43.64;101677.94;5017618;28;20416;-83
2023/09/26 02:10:11;;;;;;;0.50;0.50;;;;;;;20.77;43.69;101678.75;5043481;28;20393;-79
2023/09/26 02:12:43;;;;;;;0.40;0.40;;;;;;;20.79;43.64;101682.06;5018086;28;20450;-79
2023/09/26 02:15:11;;;;;;;0.60;0.50;;;;;;;20.75;43.60;101680.84;5033855;28;20461;-80
2023/09/26 02:17:39;;;;;;;0.40;0.30;;;;;;;20.76;43.74;101683.34;5050905;28;20388;-79
2023/09/26 02:20:12;;;;;;;0.50;0.38;;;;;;;20.81;43.75;101690.75;5050648;28;20891;-80
2023/09/26 02:22:41;;;;;;;0.40;0.40;;;;;;;20.76;43.85;101690.56;5033329;28;20396;-80
2023/09/26 02:25:07;;;;;;;0.60;0.50;;;;;;;20.69;43.99;101692.47;5032623;28;20385;-79
2023/09/26 02:27:33;;;;;;;0.67;0.60;;;;;;;20.64;44.27;101692.31;5032401;28;20412;-79
2023/09/26 02:29:58;;;;;;;0.27;0.27;;;;;;;20.59;44.38;101691.03;5050502;28;21158;-81
2023/09/26 02:32:27;;;;;;;0.50;0.40;;;;;;;20.58;44.72;101704.69;5039866;28;20384;-82
2023/09/26 02:34:53;;;;;;;0.30;0.30;;;;;;;20.51;44.83;101698.50;5010990;28;20403;-80
2023/09/26 02:37:21;;;;;;;0.40;0.40;;;;;;;20.49;44.94;101692.50;5008387;28;20923;-80
2023/09/26 02:39:49;;;;;;;0.40;0.40;;;;;;;20.52;45.03;101710.94;5008947;28;20467;-80
2023/09/26 02:42:15;;;;;;;0.40;0.30;;;;;;;20.48;45.06;101715.09;5007936;28;20601;-80
2023/09/26 02:44:41;;;;;;;0.50;0.47;;;;;;;20.39;45.25;101706.41;4991324;28;20906;-80
2023/09/26 02:47:06;;;;;;;0.57;0.47;;;;;;;20.31;45.34;101706.63;4991274;28;20946;-81
2023/09/26 02:49:32;;;;;;;1.90;0.63;;;;;;;20.27;45.58;101702.72;5007789;28;20408;-81
2023/09/26 02:51:59;;;;;;;0.45;0.30;;;;;;;20.28;45.49;101705.22;4991347;28;20476;-82
2023/09/26 02:54:26;;;;;;;0.60;0.40;;;;;;;20.20;45.71;101702.72;4990829;28;20438;-81
2023/09/26 02:56:51;;;;;;;0.68;0.60;;;;;;;20.17;45.82;101709.38;4991459;28;20399;-81
2023/09/26 02:59:17;;;;;;;0.30;0.30;;;;;;;20.08;46.10;101702.56;4991281;28;20403;-81
2023/09/26 03:01:42;;;;;;;0.40;0.30;;;;;;;20.06;46.09;101712.69;4988131;28;20414;-81
2023/09/26 03:04:09;;;;;;;0.40;0.40;;;;;;;20.03;46.11;101710.41;4988527;28;20398;-81
2023/09/26 03:06:36;;;;;;;0.60;0.60;;;;;;;20.02;46.01;101717.69;4972452;28;20433;-81
2023/09/26 03:09:04;;;;;;;0.47;0.38;;;;;;;19.95;46.19;101710.63;4988407;28;20468;-82
2023/09/26 03:11:30;;;;;;;0.30;0.20;;;;;;;19.96;46.17;101715.78;4988354;28;20431;-80
2023/09/26 03:13:55;;;;;;;0.60;0.50;;;;;;;19.91;46.16;101712.91;4988269;28;20764;-80
2023/09/26 03:16:21;;;;;;;0.38;0.38;;;;;;;19.87;46.17;101700.91;4987734;28;20445;-80
2023/09/26 03:18:52;;;;;;;0.50;0.40;;;;;;;19.92;46.04;101717.25;4984129;28;20439;-82
2023/09/26 03:21:20;;;;;;;0.40;0.30;;;;;;;19.90;46.10;101708.56;4966496;28;20482;-81
2023/09/26 03:23:49;;;;;;;0.40;0.40;;;;;;;19.85;45.99;101705.66;4973144;28;20780;-80
2023/09/26 03:26:14;;;;;;;0.40;0.30;;;;;;;19.85;45.97;101709.19;5068463;22;20423;-80
2023/09/26 03:28:43;;;;;;;0.30;0.30;;;;;;;19.83;45.93;101708.56;5086615;28;20407;-82
2023/09/26 03:31:09;;;;;;;0.80;0.50;;;;;;;19.78;46.16;101710.22;5087539;28;20768;-81
2023/09/26 03:33:34;;;;;;;0.50;0.30;;;;;;;19.66;46.53;101708.13;5068037;28;20405;-80
2023/09/26 03:36:01;;;;;;;0.40;0.40;;;;;;;19.59;46.87;101706.44;5070212;28;20912;-81
2023/09/26 03:38:27;;;;;;;0.43;0.30;;;;;;;19.61;46.59;101709.78;5070686;28;20450;-80
2023/09/26 03:41:24;;;;;;;0.30;0.20;;;;;;;19.53;46.77;101715.34;5069933;28;20408;-80
2023/09/26 03:43:51;;;;;;;0.40;0.30;;;;;;;19.48;46.99;101715.94;5061226;28;20418;-80
2023/09/26 03:46:18;;;;;;;0.37;0.30;;;;;;;19.46;46.86;101709.94;5086160;28;20739;-81
2023/09/26 03:48:43;;;;;;;0.60;0.60;;;;;;;19.46;46.87;101702.72;5060896;28;20487;-80
2023/09/26 03:51:10;;;;;;;0.30;0.30;;;;;;;19.47;46.92;101701.69;5069513;28;20470;-83
2023/09/26 03:53:43;;;;;;;0.30;0.20;;;;;;;19.39;47.10;101695.66;5070406;28;20383;-79
2023/09/26 03:56:11;;;;;;;0.20;0.20;;;;;;;19.27;47.23;101698.13;5070299;28;20406;-82
2023/09/26 03:58:37;;;;;;;0.20;0.20;;;;;;;19.20;47.33;101697.28;5073692;28;20497;-82
2023/09/26 04:01:14;;;;;;;0.70;0.60;;;;;;;19.12;47.81;101700.97;5071078;28;20387;-82
2023/09/26 04:03:46;;;;;;;0.32;0.30;;;;;;;19.09;47.73;101702.22;5071500;28;20456;-83
2023/09/26 04:06:12;;;;;;;0.60;0.50;;;;;;;19.10;47.81;101708.41;5069946;28;20474;-81
2023/09/26 04:08:44;;;;;;;0.53;0.40;;;;;;;18.95;48.24;101713.97;5052691;28;20439;-82
2023/09/26 04:11:17;;;;;;;0.40;0.30;;;;;;;18.90;48.22;101719.91;5069861;28;20379;-82
2023/09/26 04:13:44;;;;;;;0.70;0.50;;;;;;;18.88;48.15;101727.34;5067852;28;20476;-81
2023/09/26 04:16:11;;;;;;;0.60;0.50;;;;;;;18.82;48.23;101720.09;5070617;28;20785;-82
2023/09/26 04:18:38;;;;;;;0.40;0.30;;;;;;;18.78;48.28;101718.81;5071017;28;20512;-78
2023/09/26 04:21:06;;;;;;;0.30;0.30;;;;;;;18.72;48.47;101715.06;5073081;28;20379;-81
2023/09/26 04:23:32;;;;;;;0.32;0.30;;;;;;;18.70;48.36;101717.13;5070160;28;20469;-83
2023/09/26 04:25:58;;;;;;;0.30;0.30;;;;;;;18.63;48.40;101716.25;5069396;28;20904;-83
2023/09/26 04:28:25;;;;;;;1.33;0.82;;;;;;;18.58;48.77;101717.88;5070555;28;20402;-83
2023/09/26 04:30:51;;;;;;;0.40;0.40;;;;;;;18.38;49.44;101715.91;5056197;28;20429;-82
2023/09/26 04:33:17;;;;;;;0.40;0.40;;;;;;;18.33;49.45;101721.88;5048991;28;20534;-81
2023/09/26 04:35:42;;;;;;;0.40;0.40;;;;;;;18.40;49.41;101726.47;5014730;28;20530;-79
2023/09/26 04:38:09;;;;;;;2.70;0.40;;;;;;;18.37;49.36;101729.56;5065557;28;20463;-81
2023/09/26 04:40:35;;;;;;;0.20;0.20;;;;;;;18.24;49.58;101733.81;5033164;28;20895;-81
2023/09/26 04:43:02;;;;;;;0.15;0.15;;;;;;;18.06;50.30;101736.97;5049680;28;20907;-78
2023/09/26 04:45:30;;;;;;;0.10;0.10;;;;;;;17.95;50.54;101741.03;5066240;28;20397;-81
2023/09/26 04:48:08;;;;;;;0.10;0.10;;;;;;;17.93;50.76;101743.06;5066645;28;20939;-81
2023/09/26 04:50:33;;;;;;;0.10;0.10;;;;;;;18.00;50.69;101734.22;5050551;28;20396;-82
2023/09/26 04:52:59;;;;;;;1.30;1.00;;;;;;;17.89;50.96;101740.94;5048969;28;20763;-81
2023/09/26 04:55:25;;;;;;;0.00;0.00;;;;;;;17.72;51.42;101748.41;5047343;28;20926;-83
2023/09/26 04:57:51;;;;;;;0.10;0.10;;;;;;;17.77;51.39;101745.97;5048089;28;20392;-82
2023/09/26 05:00:19;;;;;;;0.10;0.10;;;;;;;17.79;51.05;101746.63;5031028;28;20389;-82
2023/09/26 05:02:50;;;;;;;0.00;0.00;;;;;;;17.72;51.36;101738.50;5031424;28;20913;-83
2023/09/26 05:05:16;;;;;;;0.10;0.10;;;;;;;17.76;51.29;101747.81;5027396;28;20564;-81
2023/09/26 05:07:44;;;;;;;0.20;0.20;;;;;;;17.80;51.13;101745.59;5027451;28;20432;-81
2023/09/26 05:10:13;;;;;;;0.10;0.10;;;;;;;17.85;51.09;101750.38;5011375;28;20497;-82
2023/09/26 05:12:40;;;;;;;0.20;0.20;;;;;;;17.83;50.98;101750.56;5011323;28;20448;-81
2023/09/26 05:15:13;;;;;;;0.10;0.10;;;;;;;17.88;51.43;101758.06;5027404;28;20397;-81
2023/09/26 05:17:52;;;;;;;0.10;0.10;;;;;;;17.99;51.13;101762.06;5027784;28;20386;-81
2023/09/26 05:20:18;;;;;;;0.10;0.10;;;;;;;18.03;51.01;101756.13;5028272;28;20394;-82
2023/09/26 05:22:48;;;;;;;0.30;0.30;;;;;;;18.06;50.75;101752.22;5027780;28;20382;-82
2023/09/26 05:25:15;;;;;;;0.10;0.10;;;;;;;18.03;50.92;101760.69;5014288;28;20929;-82
2023/09/26 05:27:43;;;;;;;0.20;0.20;;;;;;;18.01;50.76;101754.69;5047706;28;20435;-82
2023/09/26 05:30:11;;;;;;;0.40;0.40;;;;;;;18.12;50.77;101754.16;5047959;28;20388;-80
2023/09/26 05:32:38;;;;;;;0.10;0.10;;;;;;;18.24;50.47;101751.75;5031291;28;20392;-81
2023/09/26 05:35:06;;;;;;;0.20;0.20;;;;;;;18.36;50.52;101755.53;5030762;28;20463;-81
2023/09/26 05:37:32;;;;;;;0.03;0.03;;;;;;;18.38;50.37;101748.13;5047883;28;20521;-81
2023/09/26 05:39:58;;;;;;;0.67;0.67;;;;;;;18.43;50.30;101760.97;5047615;28;20795;-83
2023/09/26 05:42:23;;;;;;;0.20;0.20;;;;;;;18.45;50.16;101761.59;5035449;28;20404;-81
2023/09/26 05:44:49;;;;;;;0.20;0.20;;;;;;;18.70;50.08;101765.47;5048703;28;20400;-80
2023/09/26 05:47:15;;;;;;;0.10;0.10;;;;;;;18.89;49.40;101761.28;5049579;28;20825;-82
2023/09/26 05:49:40;;;;;;;0.20;0.20;;;;;;;18.97;49.28;101768.31;5049603;28;20855;-83
2023/09/26 05:52:06;;;;;;;0.13;0.13;;;;;;;18.93;49.24;101763.56;5049793;28;20419;-82
2023/09/26 05:54:32;;;;;;;0.10;0.10;;;;;;;18.93;49.47;101769.75;5050403;28;20446;-81
2023/09/26 05:57:04;;;;;;;0.10;0.10;;;;;;;19.00;49.47;101772.47;5049680;28;20384;-80
2023/09/26 05:59:30;;;;;;;0.00;0.00;;;;;;;19.22;48.94;101774.00;5050693;28;20515;-84
2023/09/26 06:02:04;;;;;;;0.70;0.70;;;;;;;19.34;48.79;101766.19;5049980;28;20790;-81
2023/09/26 06:04:29;;;;;;;0.10;0.10;;;;;;;19.49;48.57;101769.53;5049413;28;20957;-80
2023/09/26 06:06:55;;;;;;;0.20;0.20;;;;;;;19.58;48.47;101769.34;5030968;28;20410;-79
2023/09/26 06:09:20;;;;;;;0.20;0.20;;;;;;;19.62;48.54;101762.53;5049571;28;20377;-81
2023/09/26 06:11:46;;;;;;;0.10;0.10;;;;;;;19.65;48.56;101767.50;5048954;28;20376;-79
2023/09/26 06:14:11;;;;;;;0.40;0.23;;;;;;;19.78;48.47;101766.72;5049488;28;20785;-80
2023/09/26 06:16:37;;;;;;;0.35;0.35;;;;;;;19.93;48.23;101755.75;5069425;28;20450;-78
2023/09/26 06:19:03;;;;;;;0.10;0.10;;;;;;;20.08;48.11;101758.22;5053541;28;20408;-79
2023/09/26 06:21:28;;;;;;;0.20;0.20;;;;;;;20.14;48.12;101760.91;5053151;28;20933;-79
2023/09/26 06:23:56;;;;;;;0.17;0.17;;;;;;;20.31;47.72;101757.78;5052331;28;20767;-80
2023/09/26 06:26:22;;;;;;;0.23;0.23;;;;;;;20.50;47.47;101753.44;5030817;28;20460;-81
2023/09/26 06:28:49;;;;;;;0.17;0.17;;;;;;;20.61;47.16;101756.31;5030471;28;20413;-79
2023/09/26 06:31:16;;;;;;;0.60;0.50;;;;;;;20.66;47.14;101752.19;5030770;28;20487;-80
2023/09/26 06:33:41;;;;;;;0.10;0.10;;;;;;;20.74;46.88;101760.88;5030229;28;20884;-78
2023/09/26 06:36:12;;;;;;;0.23;0.23;;;;;;;20.85;46.89;101767.47;5030303;28;20413;-79
2023/09/26 06:38:37;;;;;;;0.20;0.20;;;;;;;20.96;46.71;101758.69;5033117;28;20390;-79
2023/09/26 06:41:07;;;;;;;0.70;0.30;;;;;;;21.14;46.31;101771.47;5030305;28;20437;-78
2023/09/26 06:43:37;;;;;;;0.00;0.00;;;;;;;21.22;46.08;101756.09;5014997;28;20382;-79
2023/09/26 06:46:06;;;;;;;0.20;0.20;;;;;;;21.35;45.74;101759.53;5031063;28;20398;-79
2023/09/26 06:48:52;;;;;;;0.10;0.10;;;;;;;21.46;45.41;101762.63;5031072;28;20955;-79
2023/09/26 06:51:18;;;;;;;0.10;0.10;;;;;;;21.62;44.77;101772.88;5030167;28;20425;-79
2023/09/26 06:53:44;;;;;;;0.40;0.40;;;;;;;21.74;44.49;101770.34;5030026;28;20467;-80
2023/09/26 06:56:10;;;;;;;0.10;0.10;;;;;;;21.89;44.57;101776.22;5010191;28;20479;-79
2023/09/26 06:58:55;;;;;;;0.10;0.10;;;;;;;21.96;43.81;101760.81;5010232;28;20400;-79
2023/09/26 07:01:21;;;;;;;0.20;0.20;;;;;;;22.16;43.58;101776.00;4993427;28;20391;-79
2023/09/26 07:03:47;;;;;;;0.10;0.10;;;;;;;22.24;43.42;101783.84;4993739;28;20426;-80
2023/09/26 07:06:14;;;;;;;0.20;0.20;;;;;;;22.31;42.74;101781.13;4994085;28;20759;-80
2023/09/26 07:08:41;;;;;;;0.10;0.10;;;;;;;22.43;42.94;101773.91;4977196;28;20415;-80
2023/09/26 07:11:10;;;;;;;0.52;0.50;;;;;;;22.60;42.77;101776.03;5009904;28;20926;-78
2023/09/26 07:13:36;;;;;;;0.22;0.22;;;;;;;22.63;42.76;101759.38;4993508;28;20443;-80
2023/09/26 07:16:08;;;;;;;0.10;0.10;;;;;;;22.71;42.75;101759.09;5015566;28;20403;-80
2023/09/26 07:18:36;;;;;;;0.10;0.10;;;;;;;22.80;42.66;101763.13;4998954;28;20909;-80
2023/09/26 07:21:27;;;;;;;0.10;0.10;;;;;;;22.92;41.92;101763.19;5013342;28;20405;-79
2023/09/26 07:23:54;;;;;;;0.08;0.08;;;;;;;22.97;42.37;101757.09;5029266;28;20409;-82
2023/09/26 07:26:20;;;;;;;0.50;0.10;;;;;;;23.19;42.16;101762.88;5015866;28;20408;-82
2023/09/26 07:28:48;;;;;;;0.10;0.10;;;;;;;23.20;42.40;101757.25;5049441;28;20420;-80
2023/09/26 07:31:23;;;;;;;0.15;0.15;;;;;;;23.41;41.88;101764.03;5051606;28;20511;-79
2023/09/26 07:33:50;;;;;;;0.10;0.10;;;;;;;23.58;41.52;101766.91;5051193;28;20389;-78
2023/09/26 07:36:18;;;;;;;0.20;0.20;;;;;;;23.60;41.12;101763.97;5051485;28;20385;-78
2023/09/26 07:38:45;;;;;;;0.10;0.10;;;;;;;23.77;40.51;101773.06;5051205;28;20392;-79
2023/09/26 07:41:11;;;;;;;0.40;0.40;;;;;;;23.76;40.50;101762.47;5051358;28;20392;-82
2023/09/26 07:43:37;;;;;;;0.10;0.10;;;;;;;23.88;40.33;101757.09;5051591;28;20452;-82
2023/09/26 07:46:09;;;;;;;0.10;0.10;;;;;;;23.92;39.94;101756.41;5049993;28;20403;-82
2023/09/26 07:48:36;;;;;;;0.10;0.10;;;;;;;24.04;39.98;101754.53;5050662;28;20415;-81
2023/09/26 07:51:09;;;;;;;0.00;0.00;;;;;;;24.11;39.76;101748.16;5049991;28;20372;-82
2023/09/26 07:53:37;;;;;;;0.30;0.30;;;;;;;24.16;39.83;101756.41;5051007;28;20712;-82
2023/09/26 07:56:04;;;;;;;0.37;0.37;;;;;;;24.25;39.26;101749.56;5049410;28;20464;-82
2023/09/26 07:58:29;;;;;;;0.00;0.00;;;;;;;24.24;39.26;101759.59;5049840;28;20404;-86
2023/09/26 08:00:58;;;;;;;0.00;0.00;;;;;;;24.33;39.17;101756.53;5050032;28;20408;-81
2023/09/26 08:03:24;;;;;;;0.20;0.20;;;;;;;24.42;38.96;101758.66;5049973;28;20849;-82
2023/09/26 08:05:57;;;;;;;0.10;0.10;;;;;;;24.52;38.65;101749.91;5050033;28;20475;-85
2023/09/26 08:08:23;;;;;;;0.10;0.10;;;;;;;24.51;38.15;101750.97;5050460;28;20408;-82
2023/09/26 08:10:49;;;;;;;0.38;0.30;;;;;;;24.52;37.35;101758.03;5051641;28;20392;-81
2023/09/26 08:13:15;;;;;;;0.10;0.10;;;;;;;24.58;36.84;101751.72;5049456;28;20397;-81
2023/09/26 08:15:46;;;;;;;0.10;0.10;;;;;;;24.56;36.58;101756.53;5066273;28;20400;-82
2023/09/26 08:18:14;;;;;;;0.20;0.20;;;;;;;24.48;36.17;101756.06;5067263;28;20395;-82
2023/09/26 08:20:46;;;;;;;0.30;0.30;;;;;;;24.51;36.80;101748.25;5049674;28;20388;-81
2023/09/26 08:23:12;;;;;;;0.30;0.30;;;;;;;24.72;36.61;101752.28;5065493;28;20963;-84
2023/09/26 08:25:40;;;;;;;0.65;0.65;;;;;;;24.70;36.72;101751.66;5050052;28;20408;-83
2023/09/26 08:28:10;;;;;;;0.10;0.10;;;;;;;24.75;36.86;101754.47;5051173;28;20401;-81
2023/09/26 08:30:37;;;;;;;0.10;0.10;;;;;;;24.87;37.02;101756.38;5050643;28;20389;-81
2023/09/26 08:33:07;;;;;;;0.20;0.20;;;;;;;24.89;36.76;101754.22;5050800;28;20413;-82
2023/09/26 08:35:33;;;;;;;0.20;0.20;;;;;;;24.79;36.23;101752.13;5055621;28;20416;-81
2023/09/26 08:37:58;;;;;;;0.10;0.10;;;;;;;24.87;36.46;101759.06;5049919;28;20428;-82
2023/09/26 08:40:25;;;;;;;0.30;0.30;;;;;;;24.97;36.34;101754.69;5066147;28;20377;-82
2023/09/26 08:42:58;;;;;;;0.32;0.22;;;;;;;24.92;36.76;101756.44;5050017;28;20389;-82
2023/09/26 08:45:28;;;;;;;0.30;0.30;;;;;;;24.93;36.56;101758.09;5049502;28;20465;-82
2023/09/26 08:47:56;;;;;;;0.20;0.20;;;;;;;25.08;36.30;101760.28;5048565;28;20558;-82
2023/09/26 08:50:24;;;;;;;0.10;0.10;;;;;;;25.13;36.01;101769.34;5065873;28;20392;-81
2023/09/26 08:52:53;;;;;;;0.38;0.38;;;;;;;25.18;35.77;101757.78;5049525;28;20392;-82
2023/09/26 08:55:27;;;;;;;0.70;0.70;;;;;;;25.31;36.10;101756.69;5051395;28;20382;-83
2023/09/26 08:57:55;;;;;;;0.33;0.33;;;;;;;25.40;35.92;101757.94;5056887;28;20404;-82
2023/09/26 09:00:26;;;;;;;0.32;0.17;;;;;;;25.52;36.14;101752.44;5052516;28;20423;-81
2023/09/26 09:02:54;;;;;;;0.10;0.10;;;;;;;25.52;35.59;101755.97;5050556;28;20385;-81
2023/09/26 09:05:21;;;;;;;0.10;0.10;;;;;;;25.56;35.89;101757.13;5065867;28;20389;-81
2023/09/26 09:07:47;;;;;;;0.15;0.15;;;;;;;25.55;35.86;101749.22;5065841;28;20445;-81
2023/09/26 09:10:16;;;;;;;0.17;0.17;;;;;;;25.68;36.26;101758.97;5050292;28;20518;-81
2023/09/26 09:12:50;;;;;;;0.10;0.10;;;;;;;25.80;36.09;101754.25;5050985;28;20452;-81
2023/09/26 09:15:16;;;;;;;0.10;0.10;;;;;;;25.91;36.29;101749.81;5050469;28;20513;-82
2023/09/26 09:17:46;;;;;;;0.10;0.10;;;;;;;25.89;36.32;101747.38;5049243;28;20579;-81
2023/09/26 09:20:16;;;;;;;0.20;0.20;;;;;;;26.00;36.07;101750.25;5050137;28;20395;-81
2023/09/26 09:22:57;;;;;;;0.40;0.40;;;;;;;25.99;36.50;101745.91;5050642;28;20425;-81
2023/09/26 09:25:29;;;;;;;0.20;0.20;;;;;;;26.01;36.63;101735.63;5049148;28;20412;-81
2023/09/26 09:27:59;;;;;;;0.17;0.17;;;;;;;26.22;36.25;101734.84;5049127;28;20466;-82
2023/09/26 09:30:24;;;;;;;0.10;0.10;;;;;;;26.20;35.78;101745.13;5050097;28;20454;-82
2023/09/26 09:32:51;;;;;;;0.10;0.10;;;;;;;26.22;35.92;101736.75;5050379;28;20791;-82
2023/09/26 09:35:18;;;;;;;0.30;0.30;;;;;;;26.19;36.02;101740.75;5050409;28;20388;-82
2023/09/26 09:37:45;;;;;;;0.20;0.20;;;;;;;26.25;36.05;101731.63;5048861;28;20424;-80
2023/09/26 09:40:19;;;;;;;0.28;0.28;;;;;;;26.41;35.58;101738.06;5050569;28;20392;-81
2023/09/26 09:42:51;;;;;;;0.10;0.10;;;;;;;26.44;35.62;101739.47;5050698;28;20415;-83
2023/09/26 09:45:19;;;;;;;0.10;0.10;;;;;;;26.55;35.88;101735.81;5049355;28;20392;-82
2023/09/26 09:47:47;;;;;;;0.30;0.30;;;;;;;26.50;35.89;101733.84;5065949;28;20447;-82
2023/09/26 09:50:14;;;;;;;0.50;0.50;;;;;;;26.51;35.94;101721.09;5048702;28;20389;-82
2023/09/26 09:52:53;;;;;;;0.47;0.47;;;;;;;26.44;36.09;101728.59;5066495;28;20411;-82
2023/09/26 09:55:28;;;;;;;0.20;0.20;;;;;;;26.48;35.78;101719.69;5053984;28;20832;-83
2023/09/26 09:57:57;;;;;;;0.17;0.17;;;;;;;26.42;36.02;101726.13;5054172;28;20412;-81
2023/09/26 10:00:29;;;;;;;0.10;0.10;;;;;;;26.50;36.17;101722.16;5053550;28;20380;-82
2023/09/26 10:03:00;;;;;;;0.27;0.27;;;;;;;26.46;36.20;101716.38;4996314;28;20475;-82
2023/09/26 10:05:28;;;;;;;0.13;0.13;;;;;;;26.33;35.89;101708.63;4995309;28;20492;-81
2023/09/26 10:07:57;;;;;;;0.13;0.13;;;;;;;26.35;36.26;101706.47;4995036;28;20432;-83
2023/09/26 10:10:25;;;;;;;0.40;0.40;;;;;;;26.47;36.08;101709.88;4995696;28;20495;-82
2023/09/26 10:12:52;;;;;;;0.10;0.10;;;;;;;26.50;35.83;101697.69;4995270;28;20407;-81
2023/09/26 10:15:17;;;;;;;0.10;0.10;;;;;;;26.58;35.69;101705.41;4940172;28;20396;-81
2023/09/26 10:17:48;;;;;;;0.10;0.10;;;;;;;26.53;35.92;101697.19;4972177;28;20495;-81
2023/09/26 10:20:14;;;;;;;0.10;0.10;;;;;;;26.54;36.07;101685.22;4956788;28;20403;-81
2023/09/26 10:22:43;;;;;;;0.50;0.50;;;;;;;26.72;36.09;101688.72;4972583;28;20443;-84
2023/09/26 10:25:23;;;;;;;0.13;0.13;;;;;;;26.86;35.92;101687.25;4971957;28;20412;-81
2023/09/26 10:27:53;;;;;;;0.10;0.10;;;;;;;26.88;35.67;101698.69;4969915;28;20441;-83
2023/09/26 10:30:19;;;;;;;0.10;0.10;;;;;;;26.96;35.68;101692.78;4992461;28;20389;-81
2023/09/26 10:32:46;;;;;;;1.00;0.40;;;;;;;26.98;35.59;101693.34;4959325;28;20464;-81
2023/09/26 10:35:25;;;;;;;0.10;0.10;;;;;;;27.08;35.39;101685.31;4991515;28;20468;-83
2023/09/26 10:38:19;;;;;;;0.10;0.10;;;;;;;27.22;35.17;101687.59;4991527;28;20409;-84
2023/09/26 10:40:48;;;;;;;0.30;0.30;;;;;;;27.19;35.47;101685.38;4975807;28;20413;-83
2023/09/26 10:43:43;;;;;;;0.20;0.20;;;;;;;27.15;35.55;101682.34;4975102;28;20402;-85
2023/09/26 10:46:26;;;;;;;0.10;0.10;;;;;;;27.24;35.59;101671.81;4977363;28;20402;-81
2023/09/26 10:48:53;;;;;;;0.10;0.10;;;;;;;27.36;35.41;101674.41;4975103;28;20424;-82
2023/09/26 10:51:20;;;;;;;0.10;0.10;;;;;;;27.43;35.54;101675.84;4991267;28;20398;-83
2023/09/26 10:53:47;;;;;;;0.13;0.13;;;;;;;27.46;35.45;101677.22;5010237;28;20430;-80
2023/09/26 10:56:14;;;;;;;0.20;0.20;;;;;;;27.38;35.42;101658.63;5001282;28;20433;-80
2023/09/26 10:58:47;;;;;;;0.10;0.10;;;;;;;27.42;35.20;101657.88;5032440;28;20458;-81
2023/09/26 11:01:18;;;;;;;0.20;0.20;;;;;;;27.32;34.52;101663.22;5053769;28;20388;-85
2023/09/26 11:03:44;;;;;;;0.40;0.40;;;;;;;27.46;35.02;101658.16;5069165;28;20385;-81
2023/09/26 11:06:11;;;;;;;0.10;0.10;;;;;;;27.52;35.10;101651.66;5052037;28;20396;-82
2023/09/26 11:08:37;;;;;;;0.20;0.20;;;;;;;27.44;34.45;101663.88;5053131;28;20405;-83
2023/09/26 11:11:03;;;;;;;0.40;0.40;;;;;;;27.37;34.29;101654.25;5051562;28;20389;-83
2023/09/26 11:13:33;;;;;;;1.20;0.70;;;;;;;27.43;34.33;101648.59;5068164;28;20751;-83
2023/09/26 11:16:00;;;;;;;0.10;0.10;;;;;;;27.53;34.38;101649.75;5067629;28;20549;-82
2023/09/26 11:18:29;;;;;;;0.28;0.28;;;;;;;27.61;34.39;101646.56;5037417;28;21159;-82
2023/09/26 11:20:54;;;;;;;0.30;0.30;;;;;;;27.49;34.02;101656.81;5048490;28;20506;-83
2023/09/26 11:23:39;;;;;;;0.20;0.20;;;;;;;27.44;34.39;101661.16;5068030;28;20895;-82
2023/09/26 11:26:11;;;;;;;0.20;0.20;;;;;;;27.64;34.43;101649.56;5067297;28;20810;-82
2023/09/26 11:28:41;;;;;;;0.40;0.40;;;;;;;27.75;34.19;101644.19;5054796;28;20408;-82
2023/09/26 11:31:06;;;;;;;0.50;0.43;;;;;;;27.56;34.08;101647.31;5071844;28;20398;-82